createdAt,value
2018-09-09T00:00:07.717Z,17.17
2018-09-09T00:02:36.706Z,17.17
2018-09-09T00:05:05.767Z,17.09
2018-09-09T00:07:34.781Z,17.00
2018-09-09T00:10:04.009Z,17.01
2018-09-09T00:12:33.056Z,17.13
2018-09-09T00:15:02.480Z,17.04
2018-09-09T00:17:31.485Z,17.13
2018-09-09T00:20:00.629Z,17.21
2018-09-09T00:22:29.629Z,17.16
2018-09-09T00:24:58.577Z,17.07
2018-09-09T00:27:27.562Z,17.09
2018-09-09T00:29:56.521Z,17.10
2018-09-09T00:32:25.494Z,16.99
2018-09-09T00:34:54.536Z,17.01
2018-09-09T00:37:23.521Z,16.88
2018-09-09T00:39:52.467Z,16.89
2018-09-09T00:42:21.584Z,16.80
2018-09-09T00:44:50.567Z,16.93
2018-09-09T00:47:19.564Z,16.84
2018-09-09T00:49:53.969Z,16.96
2018-09-09T00:52:28.347Z,16.98
2018-09-09T00:54:57.341Z,17.05
2018-09-09T00:57:26.359Z,16.82
2018-09-09T00:59:55.615Z,16.75
2018-09-09T01:02:24.940Z,16.96
2018-09-09T01:04:54.155Z,16.96
2018-09-09T01:07:23.155Z,16.94
2018-09-09T01:09:52.265Z,16.78
2018-09-09T01:12:21.629Z,16.78
2018-09-09T01:14:50.679Z,16.93
2018-09-09T01:17:19.647Z,16.93
2018-09-09T01:19:49.546Z,16.73
2018-09-09T01:22:18.517Z,16.86
2018-09-09T01:24:47.557Z,16.66
2018-09-09T01:27:16.547Z,16.71
2018-09-09T01:29:45.513Z,16.85
2018-09-09T01:32:14.486Z,16.86
2018-09-09T01:34:43.451Z,16.83
2018-09-09T01:37:12.417Z,16.82
2018-09-09T01:39:41.366Z,16.76
2018-09-09T01:42:10.356Z,16.88
2018-09-09T01:44:39.407Z,16.77
2018-09-09T01:47:08.488Z,16.58
2018-09-09T01:49:38.760Z,16.56
2018-09-09T01:52:08.162Z,16.68
2018-09-09T01:54:37.211Z,16.51
2018-09-09T01:57:06.339Z,16.49
2018-09-09T01:59:36.355Z,16.46
2018-09-09T02:02:05.335Z,16.55
2018-09-09T02:04:34.427Z,16.67
2018-09-09T02:07:04.246Z,16.52
2018-09-09T02:09:33.447Z,16.45
2018-09-09T02:12:02.907Z,16.45
2018-09-09T02:14:32.137Z,16.31
2018-09-09T02:17:01.667Z,16.54
2018-09-09T02:19:30.983Z,16.37
2018-09-09T02:21:59.998Z,16.09
2018-09-09T02:24:29.140Z,16.19
2018-09-09T02:26:58.275Z,16.07
2018-09-09T02:29:27.291Z,16.26
2018-09-09T02:31:56.243Z,16.20
2018-09-09T02:34:25.203Z,16.02
2018-09-09T02:36:54.228Z,16.13
2018-09-09T02:39:23.239Z,16.03
2018-09-09T02:41:52.253Z,15.92
2018-09-09T02:44:21.368Z,15.99
2018-09-09T02:46:50.408Z,15.88
2018-09-09T02:49:19.347Z,15.90
2018-09-09T02:51:48.473Z,16.15
2018-09-09T02:54:17.476Z,15.89
2018-09-09T02:56:46.479Z,15.76
2018-09-09T02:59:15.504Z,15.98
2018-09-09T03:01:44.561Z,16.01
2018-09-09T03:04:13.530Z,15.89
2018-09-09T03:06:42.580Z,16.05
2018-09-09T03:09:11.559Z,16.06
2018-09-09T03:11:40.903Z,16.00
2018-09-09T03:14:09.926Z,15.81
2018-09-09T03:16:38.910Z,15.79
2018-09-09T03:19:07.907Z,15.71
2018-09-09T03:21:36.869Z,15.90
2018-09-09T03:24:05.893Z,15.85
2018-09-09T03:26:34.914Z,15.71
2018-09-09T03:29:03.988Z,15.75
2018-09-09T03:31:33.264Z,15.66
2018-09-09T03:34:02.235Z,15.69
2018-09-09T03:36:31.277Z,15.58
2018-09-09T03:39:00.451Z,15.69
2018-09-09T03:41:29.364Z,15.79
2018-09-09T03:43:58.401Z,15.67
2018-09-09T03:46:27.389Z,15.64
2018-09-09T03:48:56.383Z,15.77
2018-09-09T03:51:25.384Z,15.73
2018-09-09T03:53:54.423Z,15.71
2018-09-09T03:56:23.463Z,15.78
2018-09-09T03:58:52.426Z,15.68
2018-09-09T04:01:21.374Z,15.81
2018-09-09T04:03:50.412Z,15.66
2018-09-09T04:06:19.516Z,15.71
2018-09-09T04:08:48.558Z,15.69
2018-09-09T04:11:17.625Z,15.70
2018-09-09T04:13:46.673Z,15.91
2018-09-09T04:16:15.649Z,15.68
2018-09-09T04:18:44.635Z,15.69
2018-09-09T04:21:13.588Z,15.74
2018-09-09T04:23:42.652Z,15.65
2018-09-09T04:26:11.652Z,15.57
2018-09-09T04:28:40.655Z,15.63
2018-09-09T04:31:09.654Z,15.57
2018-09-09T04:33:38.703Z,15.57
2018-09-09T04:36:07.716Z,15.68
2018-09-09T04:38:36.926Z,15.51
2018-09-09T04:41:05.940Z,15.54
2018-09-09T04:43:34.918Z,15.65
2018-09-09T04:46:04.111Z,15.52
2018-09-09T04:48:33.940Z,15.55
2018-09-09T04:51:03.074Z,15.57
2018-09-09T04:53:32.059Z,15.50
2018-09-09T04:56:01.150Z,15.58
2018-09-09T04:58:30.421Z,15.47
2018-09-09T05:00:59.415Z,15.60
2018-09-09T05:03:28.446Z,15.48
2018-09-09T05:05:57.453Z,15.68
2018-09-09T05:08:26.416Z,15.43
2018-09-09T05:10:55.449Z,15.45
2018-09-09T05:13:24.413Z,15.53
2018-09-09T05:15:53.420Z,15.58
2018-09-09T05:18:22.487Z,15.51
2018-09-09T05:20:51.461Z,15.55
2018-09-09T05:23:20.446Z,15.58
2018-09-09T05:25:49.410Z,15.66
2018-09-09T05:28:18.450Z,15.60
2018-09-09T05:30:47.436Z,15.61
2018-09-09T05:33:16.436Z,15.62
2018-09-09T05:35:45.484Z,15.65
2018-09-09T05:38:14.544Z,15.70
2018-09-09T05:40:43.553Z,15.56
2018-09-09T05:43:12.661Z,15.62
2018-09-09T05:45:41.645Z,15.65
2018-09-09T05:48:10.606Z,15.65
2018-09-09T05:50:39.957Z,15.73
2018-09-09T05:53:08.892Z,15.82
2018-09-09T05:55:37.957Z,15.60
2018-09-09T05:58:07.252Z,15.85
2018-09-09T06:00:36.437Z,15.67
2018-09-09T06:03:05.442Z,15.71
2018-09-09T06:05:34.433Z,15.63
2018-09-09T06:08:03.420Z,15.64
2018-09-09T06:10:32.372Z,15.72
2018-09-09T06:13:01.379Z,15.78
2018-09-09T06:15:30.416Z,15.79
2018-09-09T06:17:59.349Z,15.92
2018-09-09T06:20:28.398Z,15.96
2018-09-09T06:22:57.395Z,15.96
2018-09-09T06:25:26.391Z,16.13
2018-09-09T06:27:55.377Z,16.16
2018-09-09T06:30:24.374Z,16.21
2018-09-09T06:32:53.334Z,16.23
2018-09-09T06:35:22.405Z,16.27
2018-09-09T06:37:51.331Z,16.27
2018-09-09T06:40:20.491Z,16.37
2018-09-09T06:42:49.436Z,16.43
2018-09-09T06:45:18.437Z,16.57
2018-09-09T06:47:47.488Z,16.59
2018-09-09T06:50:16.495Z,16.56
2018-09-09T06:52:45.668Z,16.56
2018-09-09T06:55:15.402Z,16.61
2018-09-09T06:57:44.495Z,16.66
2018-09-09T07:00:13.571Z,16.72
2018-09-09T07:02:42.595Z,16.74
2018-09-09T07:05:11.580Z,16.76
2018-09-09T07:07:40.913Z,16.88
2018-09-09T07:10:09.891Z,16.79
2018-09-09T07:12:38.863Z,16.82
2018-09-09T07:15:07.920Z,16.86
2018-09-09T07:17:36.917Z,16.92
2018-09-09T07:20:05.891Z,16.99
2018-09-09T07:22:34.963Z,17.02
2018-09-09T07:25:04.000Z,16.96
2018-09-09T07:27:32.992Z,16.98
2018-09-09T07:30:01.929Z,16.98
2018-09-09T07:32:30.921Z,17.02
2018-09-09T07:34:59.906Z,17.11
2018-09-09T07:37:28.948Z,17.17
2018-09-09T07:39:57.939Z,17.14
2018-09-09T07:42:26.973Z,17.26
2018-09-09T07:44:55.983Z,17.29
2018-09-09T07:47:25.018Z,17.34
2018-09-09T07:49:54.036Z,17.39
2018-09-09T07:52:22.990Z,17.40
2018-09-09T07:54:52.043Z,17.35
2018-09-09T07:57:20.977Z,17.45
2018-09-09T07:59:49.959Z,17.35
2018-09-09T08:02:18.933Z,17.48
2018-09-09T08:04:47.877Z,17.60
2018-09-09T08:07:16.837Z,17.61
2018-09-09T08:09:45.820Z,17.61
2018-09-09T08:12:14.818Z,17.67
2018-09-09T08:14:43.921Z,17.64
2018-09-09T08:17:12.873Z,17.62
2018-09-09T08:19:41.879Z,17.68
2018-09-09T08:22:10.861Z,17.76
2018-09-09T08:24:39.808Z,17.72
2018-09-09T08:27:08.728Z,17.72
2018-09-09T08:29:37.733Z,17.74
2018-09-09T08:32:06.780Z,17.68
2018-09-09T08:34:35.690Z,17.76
2018-09-09T08:37:04.658Z,17.81
2018-09-09T08:39:33.954Z,17.78
2018-09-09T08:42:02.993Z,17.77
2018-09-09T08:44:31.964Z,17.84
2018-09-09T08:47:00.970Z,17.87
2018-09-09T08:49:29.978Z,17.81
2018-09-09T08:51:59.105Z,17.93
2018-09-09T08:54:28.190Z,18.06
2018-09-09T08:56:57.223Z,18.09
2018-09-09T08:59:26.252Z,18.19
2018-09-09T09:01:55.249Z,18.19
2018-09-09T09:04:24.262Z,18.19
2018-09-09T09:06:53.930Z,18.43
2018-09-09T09:09:22.900Z,18.42
2018-09-09T09:11:51.913Z,18.47
2018-09-09T09:14:20.911Z,18.60
2018-09-09T09:16:49.877Z,18.39
2018-09-09T09:19:18.855Z,18.48
2018-09-09T09:21:47.795Z,18.72
2018-09-09T09:24:16.746Z,18.74
2018-09-09T09:26:45.731Z,18.69
2018-09-09T09:29:14.669Z,18.95
2018-09-09T09:31:44.074Z,18.87
2018-09-09T09:34:13.022Z,19.23
2018-09-09T09:36:41.953Z,19.19
2018-09-09T09:39:10.943Z,19.11
2018-09-09T09:41:39.928Z,18.91
2018-09-09T09:44:09.010Z,19.28
2018-09-09T09:46:37.989Z,19.10
2018-09-09T09:49:07.152Z,19.31
2018-09-09T09:51:36.135Z,19.51
2018-09-09T09:54:05.083Z,19.46
2018-09-09T09:56:34.119Z,19.58
2018-09-09T09:59:03.150Z,19.34
2018-09-09T10:01:32.624Z,19.31
2018-09-09T10:04:01.587Z,19.39
2018-09-09T10:06:30.563Z,19.34
2018-09-09T10:09:00.482Z,19.43
2018-09-09T10:11:29.443Z,19.55
2018-09-09T10:13:58.334Z,19.77
2018-09-09T10:16:27.355Z,19.60
2018-09-09T10:18:56.328Z,19.70
2018-09-09T10:21:25.297Z,19.62
2018-09-09T10:23:54.308Z,19.77
2018-09-09T10:26:23.309Z,19.88
2018-09-09T10:28:52.545Z,19.77
2018-09-09T10:31:21.716Z,19.82
2018-09-09T10:33:50.792Z,19.94
2018-09-09T10:36:19.858Z,19.96
2018-09-09T10:38:50.343Z,20.04
2018-09-09T10:41:19.435Z,20.29
2018-09-09T10:43:48.460Z,20.06
2018-09-09T10:46:17.554Z,20.32
2018-09-09T10:48:46.691Z,20.54
2018-09-09T10:51:15.712Z,20.50
2018-09-09T10:53:44.851Z,20.33
2018-09-09T10:56:13.853Z,20.35
2018-09-09T10:58:42.887Z,20.21
2018-09-09T11:01:11.902Z,20.61
2018-09-09T11:03:40.913Z,20.37
2018-09-09T11:06:10.018Z,20.60
2018-09-09T11:08:39.075Z,20.67
2018-09-09T11:11:08.085Z,20.42
2018-09-09T11:13:37.069Z,20.66
2018-09-09T11:16:06.176Z,20.49
2018-09-09T11:18:35.201Z,20.63
2018-09-09T11:21:04.275Z,20.76
2018-09-09T11:23:33.410Z,20.89
2018-09-09T11:26:02.555Z,20.82
2018-09-09T11:28:31.546Z,20.91
2018-09-09T11:31:00.563Z,20.76
2018-09-09T11:33:30.025Z,20.80
2018-09-09T11:35:59.083Z,20.75
2018-09-09T11:38:28.094Z,21.18
2018-09-09T11:40:57.198Z,21.06
2018-09-09T11:43:26.195Z,21.42
2018-09-09T11:45:55.191Z,21.16
2018-09-09T11:48:24.472Z,21.18
2018-09-09T11:50:53.541Z,21.14
2018-09-09T11:53:22.551Z,21.34
2018-09-09T11:55:51.535Z,21.51
2018-09-09T11:58:20.508Z,21.62
2018-09-09T12:00:49.547Z,21.30
2018-09-09T12:03:18.538Z,21.51
2018-09-09T12:05:47.466Z,21.28
2018-09-09T12:08:16.441Z,20.94
2018-09-09T12:10:45.460Z,21.11
2018-09-09T12:13:14.405Z,21.59
2018-09-09T12:15:43.388Z,21.66
2018-09-09T12:18:13.231Z,21.37
2018-09-09T12:20:42.151Z,21.51
2018-09-09T12:23:11.427Z,21.53
2018-09-09T12:25:40.763Z,21.59
2018-09-09T12:28:09.675Z,21.70
2018-09-09T12:30:38.623Z,22.07
2018-09-09T12:33:09.736Z,22.23
2018-09-09T12:35:38.684Z,22.13
2018-09-09T12:38:07.648Z,22.06
2018-09-09T12:40:37.057Z,22.22
2018-09-09T12:43:11.691Z,22.01
2018-09-09T12:45:45.994Z,21.95
2018-09-09T12:48:20.263Z,22.08
2018-09-09T12:50:49.200Z,22.09
2018-09-09T12:53:18.122Z,22.18
2018-09-09T12:55:47.100Z,22.31
2018-09-09T12:58:15.983Z,22.03
2018-09-09T13:00:44.955Z,22.16
2018-09-09T13:03:13.854Z,22.05
2018-09-09T13:05:42.769Z,22.18
2018-09-09T13:08:11.723Z,22.09
2018-09-09T13:10:40.654Z,22.22
2018-09-09T13:13:17.079Z,22.29
2018-09-09T13:15:46.358Z,22.39
2018-09-09T13:18:15.565Z,22.24
2018-09-09T13:20:44.997Z,22.31
2018-09-09T13:23:13.964Z,22.42
2018-09-09T13:25:43.219Z,22.33
2018-09-09T13:28:12.115Z,22.41
2018-09-09T13:30:41.017Z,22.04
2018-09-09T13:33:09.965Z,22.27
2018-09-09T13:35:38.894Z,22.57
2018-09-09T13:38:07.853Z,22.40
2018-09-09T13:40:36.810Z,22.59
2018-09-09T13:43:05.844Z,22.64
2018-09-09T13:45:34.868Z,22.66
2018-09-09T13:48:03.955Z,22.86
2018-09-09T13:50:32.799Z,22.84
2018-09-09T13:53:01.734Z,22.74
2018-09-09T13:55:30.623Z,22.63
2018-09-09T13:57:59.566Z,22.62
2018-09-09T14:00:28.488Z,22.86
2018-09-09T14:02:57.491Z,22.90
2018-09-09T14:05:26.426Z,23.03
2018-09-09T14:07:55.412Z,22.90
2018-09-09T14:10:24.395Z,22.77
2018-09-09T14:12:53.357Z,22.74
2018-09-09T14:15:22.304Z,22.63
2018-09-09T14:17:51.287Z,22.72
2018-09-09T14:20:20.468Z,22.75
2018-09-09T14:22:49.430Z,22.85
2018-09-09T14:25:18.334Z,22.80
2018-09-09T14:27:47.314Z,22.88
2018-09-09T14:30:16.239Z,22.92
2018-09-09T14:32:45.189Z,22.70
2018-09-09T14:35:14.107Z,22.71
2018-09-09T14:37:43.033Z,22.58
2018-09-09T14:40:11.981Z,22.61
2018-09-09T14:42:40.941Z,22.57
2018-09-09T14:45:09.838Z,22.65
2018-09-09T14:47:38.740Z,22.57
2018-09-09T14:50:07.946Z,22.67
2018-09-09T14:52:37.140Z,22.64
2018-09-09T14:55:06.146Z,22.56
2018-09-09T14:57:35.103Z,22.64
2018-09-09T15:00:04.105Z,22.71
2018-09-09T15:02:33.052Z,22.63
2018-09-09T15:05:01.998Z,22.74
2018-09-09T15:07:30.904Z,22.76
2018-09-09T15:09:59.850Z,22.85
2018-09-09T15:12:28.733Z,22.86
2018-09-09T15:14:57.722Z,22.80
2018-09-09T15:17:26.615Z,22.73
2018-09-09T15:19:55.623Z,22.79
2018-09-09T15:22:25.076Z,22.84
2018-09-09T15:24:54.024Z,22.73
2018-09-09T15:27:22.966Z,22.68
2018-09-09T15:29:51.951Z,22.74
2018-09-09T15:32:20.912Z,22.74
2018-09-09T15:34:49.809Z,22.82
2018-09-09T15:37:18.728Z,22.84
2018-09-09T15:39:47.698Z,22.90
2018-09-09T15:42:16.606Z,22.88
2018-09-09T15:44:45.597Z,22.83
2018-09-09T15:47:14.596Z,22.85
2018-09-09T15:49:43.611Z,22.81
2018-09-09T15:52:12.635Z,22.86
2018-09-09T15:54:41.569Z,22.87
2018-09-09T15:57:10.575Z,22.87
2018-09-09T15:59:39.503Z,23.02
2018-09-09T16:02:09.938Z,22.95
2018-09-09T16:04:39.182Z,23.03
2018-09-09T16:07:08.212Z,23.03
2018-09-09T16:09:37.154Z,23.13
2018-09-09T16:12:06.390Z,23.13
2018-09-09T16:14:35.369Z,23.16
2018-09-09T16:17:04.354Z,23.07
2018-09-09T16:19:33.332Z,22.97
2018-09-09T16:22:02.330Z,22.95
2018-09-09T16:24:31.779Z,22.90
2018-09-09T16:27:00.934Z,22.79
2018-09-09T16:29:29.971Z,22.77
2018-09-09T16:31:58.903Z,22.78
2018-09-09T16:34:28.055Z,22.73
2018-09-09T16:36:57.050Z,22.75
2018-09-09T16:39:26.025Z,22.71
2018-09-09T16:41:55.300Z,22.65
2018-09-09T16:44:24.283Z,22.58
2018-09-09T16:46:55.732Z,22.54
2018-09-09T16:49:24.723Z,22.56
2018-09-09T16:51:54.551Z,22.47
2018-09-09T16:54:23.450Z,22.51
2018-09-09T16:56:53.421Z,22.48
2018-09-09T16:59:22.770Z,22.58
2018-09-09T17:01:51.748Z,22.61
2018-09-09T17:04:21.814Z,22.67
2018-09-09T17:06:51.115Z,22.69
2018-09-09T17:09:20.124Z,22.61
2018-09-09T17:11:49.046Z,22.58
2018-09-09T17:14:18.054Z,22.56
2018-09-09T17:16:48.261Z,22.45
2018-09-09T17:19:17.199Z,22.43
2018-09-09T17:21:46.203Z,22.41
2018-09-09T17:24:15.793Z,22.30
2018-09-09T17:26:44.731Z,22.29
2018-09-09T17:29:13.707Z,22.20
2018-09-09T17:31:42.699Z,22.21
2018-09-09T17:34:11.699Z,22.08
2018-09-09T17:36:40.683Z,22.01
2018-09-09T17:39:10.561Z,22.01
2018-09-09T17:41:39.963Z,22.00
2018-09-09T17:44:08.920Z,21.96
2018-09-09T17:46:46.691Z,21.84
2018-09-09T17:49:15.826Z,21.82
2018-09-09T17:51:44.763Z,21.70
2018-09-09T17:54:13.727Z,21.68
2018-09-09T17:56:42.749Z,21.53
2018-09-09T17:59:11.718Z,21.49
2018-09-09T18:01:40.693Z,21.36
2018-09-09T18:04:09.728Z,21.36
2018-09-09T18:06:38.678Z,21.44
2018-09-09T18:09:08.800Z,21.30
2018-09-09T18:11:37.888Z,21.23
2018-09-09T18:14:06.841Z,21.27
2018-09-09T18:16:35.842Z,21.10
2018-09-09T18:19:04.861Z,21.05
2018-09-09T18:21:33.888Z,21.02
2018-09-09T18:24:02.816Z,21.06
2018-09-09T18:26:32.808Z,21.00
2018-09-09T18:29:01.781Z,21.03
2018-09-09T18:31:30.804Z,20.97
2018-09-09T18:33:59.759Z,20.88
2018-09-09T18:36:28.772Z,20.84
2018-09-09T18:38:57.867Z,20.79
2018-09-09T18:41:26.710Z,20.81
2018-09-09T18:43:55.719Z,20.74
2018-09-09T18:46:25.018Z,20.78
2018-09-09T18:48:53.997Z,20.73
2018-09-09T18:51:23.002Z,20.64
2018-09-09T18:53:51.999Z,20.61
2018-09-09T18:56:21.009Z,20.43
2018-09-09T18:58:49.953Z,20.46
2018-09-09T19:01:19.011Z,20.37
2018-09-09T19:03:48.011Z,20.26
2018-09-09T19:06:17.008Z,20.30
2018-09-09T19:08:46.190Z,20.26
2018-09-09T19:11:15.175Z,20.16
2018-09-09T19:13:44.164Z,20.00
2018-09-09T19:16:13.107Z,20.05
2018-09-09T19:18:42.941Z,20.05
2018-09-09T19:21:11.924Z,19.97
2018-09-09T19:23:40.970Z,20.01
2018-09-09T19:26:10.117Z,20.03
2018-09-09T19:28:39.141Z,19.89
2018-09-09T19:31:08.110Z,19.80
2018-09-09T19:33:37.131Z,19.76
2018-09-09T19:36:06.099Z,19.71
2018-09-09T19:38:35.123Z,19.71
2018-09-09T19:41:04.032Z,19.79
2018-09-09T19:43:33.578Z,19.74
2018-09-09T19:46:02.532Z,19.63
2018-09-09T19:48:31.551Z,19.59
2018-09-09T19:51:00.530Z,19.52
2018-09-09T19:53:29.435Z,19.59
2018-09-09T19:55:58.699Z,19.58
2018-09-09T19:58:27.861Z,19.58
2018-09-09T20:00:56.768Z,19.43
2018-09-09T20:03:25.757Z,19.37
2018-09-09T20:05:54.751Z,19.31
2018-09-09T20:08:23.754Z,19.46
2018-09-09T20:10:53.134Z,19.26
2018-09-09T20:13:22.111Z,19.25
2018-09-09T20:15:51.129Z,19.19
2018-09-09T20:18:20.150Z,19.20
2018-09-09T20:20:49.126Z,19.17
2018-09-09T20:23:18.634Z,19.26
2018-09-09T20:25:48.004Z,19.29
2018-09-09T20:28:16.961Z,19.27
2018-09-09T20:30:45.970Z,19.13
2018-09-09T20:33:14.965Z,19.30
2018-09-09T20:35:43.989Z,19.14
2018-09-09T20:38:12.959Z,19.11
2018-09-09T20:40:42.260Z,19.19
2018-09-09T20:43:11.206Z,19.12
2018-09-09T20:45:40.192Z,18.95
2018-09-09T20:48:09.611Z,19.02
2018-09-09T20:50:38.580Z,19.14
2018-09-09T20:53:07.592Z,19.08
2018-09-09T20:55:36.550Z,19.07
2018-09-09T20:58:05.569Z,18.93
2018-09-09T21:00:34.464Z,18.92
2018-09-09T21:03:03.538Z,18.99
2018-09-09T21:05:32.511Z,18.90
2018-09-09T21:08:01.492Z,18.84
2018-09-09T21:10:30.525Z,18.84
2018-09-09T21:12:59.523Z,18.82
2018-09-09T21:15:28.832Z,18.79
2018-09-09T21:17:57.793Z,18.93
2018-09-09T21:20:26.793Z,18.89
2018-09-09T21:22:55.817Z,18.84
2018-09-09T21:25:24.786Z,18.80
2018-09-09T21:27:53.724Z,18.76
2018-09-09T21:30:23.223Z,18.79
2018-09-09T21:32:52.227Z,18.73
2018-09-09T21:35:21.215Z,18.76
2018-09-09T21:37:50.234Z,18.63
2018-09-09T21:40:19.249Z,18.60
2018-09-09T21:42:48.187Z,18.48
2018-09-09T21:45:17.177Z,18.51
2018-09-09T21:47:46.183Z,18.46
2018-09-09T21:50:15.157Z,18.50
2018-09-09T21:52:44.132Z,18.56
2018-09-09T21:55:13.119Z,18.43
2018-09-09T21:57:42.471Z,18.54
2018-09-09T22:00:12.717Z,18.70
2018-09-09T22:02:42.440Z,18.56
2018-09-09T22:05:11.418Z,18.41
2018-09-09T22:07:40.368Z,18.33
2018-09-09T22:10:09.355Z,18.54
2018-09-09T22:12:38.460Z,18.62
2018-09-09T22:15:07.626Z,18.30
2018-09-09T22:17:36.666Z,18.38
2018-09-09T22:20:05.663Z,18.05
2018-09-09T22:22:34.627Z,18.02
2018-09-09T22:27:40.419Z,18.15
2018-09-09T22:30:09.502Z,18.02
2018-09-09T22:32:38.644Z,18.15
2018-09-09T22:35:07.619Z,18.19
2018-09-09T22:37:36.545Z,18.15
2018-09-09T22:40:05.576Z,18.11
2018-09-09T22:42:34.593Z,18.00
2018-09-09T22:45:03.634Z,18.07
2018-09-09T22:47:32.759Z,17.78
2018-09-09T22:50:01.793Z,17.86
2018-09-09T22:52:30.727Z,18.06
2018-09-09T22:55:00.017Z,17.96
2018-09-09T22:57:29.166Z,17.77
2018-09-09T22:59:58.115Z,17.95
2018-09-09T23:02:27.108Z,18.06
2018-09-09T23:04:56.132Z,18.08
2018-09-09T23:07:25.393Z,17.96
2018-09-09T23:09:54.343Z,18.07
2018-09-09T23:12:23.852Z,18.11
2018-09-09T23:14:53.006Z,18.09
2018-09-09T23:17:21.906Z,17.92
2018-09-09T23:19:50.909Z,18.04
2018-09-09T23:22:19.844Z,17.74
2018-09-09T23:24:48.860Z,17.93
2018-09-09T23:27:17.927Z,17.84
2018-09-09T23:29:46.936Z,17.87
2018-09-09T23:32:16.107Z,17.62
2018-09-09T23:34:45.143Z,17.68
2018-09-09T23:37:14.097Z,17.56
2018-09-09T23:39:43.045Z,17.49
2018-09-09T23:42:12.565Z,17.47
2018-09-09T23:44:41.624Z,17.45
2018-09-09T23:47:10.603Z,17.65
2018-09-09T23:49:39.661Z,17.69
2018-09-09T23:52:09.020Z,17.56
2018-09-09T23:54:37.953Z,17.67
2018-09-09T23:57:07.164Z,17.56
